sensor_id;sensor_type;location;lat;lon;timestamp;pressure;altitude;pressure_sealevel;temperature;humidity
77867;BME280;67271;59.120;37.970;2023-04-21T00:03:51;100382.09;;;6.10;57.22
77867;BME280;67271;59.120;37.970;2023-04-21T00:06:17;100377.56;;;6.10;57.16
77867;BME280;67271;59.120;37.970;2023-04-21T00:08:48;100373.09;;;6.27;56.90
77867;BME280;67271;59.120;37.970;2023-04-21T00:11:14;100381.47;;;6.24;56.79
77867;BME280;67271;59.120;37.970;2023-04-21T00:13:40;100372.88;;;6.12;57.30
77867;BME280;67271;59.120;37.970;2023-04-21T00:16:06;100372.38;;;6.09;57.54
77867;BME280;67271;59.120;37.970;2023-04-21T00:18:32;100366.63;;;6.04;57.63
77867;BME280;67271;59.120;37.970;2023-04-21T00:20:58;100371.03;;;6.13;57.36
77867;BME280;67271;59.120;37.970;2023-04-21T00:23:24;100367.97;;;6.00;57.96
77867;BME280;67271;59.120;37.970;2023-04-21T00:25:50;100370.81;;;5.98;58.17
77867;BME280;67271;59.120;37.970;2023-04-21T00:28:16;100368.63;;;5.94;58.14
77867;BME280;67271;59.120;37.970;2023-04-21T00:30:43;100367.59;;;5.95;58.11
77867;BME280;67271;59.120;37.970;2023-04-21T00:33:09;100368.00;;;6.08;57.97
77867;BME280;67271;59.120;37.970;2023-04-21T00:35:35;100370.72;;;6.16;57.84
77867;BME280;67271;59.120;37.970;2023-04-21T00:38:00;100370.38;;;6.19;57.50
77867;BME280;67271;59.120;37.970;2023-04-21T00:40:27;100365.19;;;6.26;57.50
77867;BME280;67271;59.120;37.970;2023-04-21T00:42:53;100363.88;;;6.30;57.43
77867;BME280;67271;59.120;37.970;2023-04-21T00:45:19;100364.38;;;6.33;57.28
77867;BME280;67271;59.120;37.970;2023-04-21T00:47:45;100354.25;;;6.19;57.81
77867;BME280;67271;59.120;37.970;2023-04-21T00:50:11;100351.34;;;6.04;58.23
77867;BME280;67271;59.120;37.970;2023-04-21T00:52:41;100360.22;;;5.97;58.67
77867;BME280;67271;59.120;37.970;2023-04-21T00:55:08;100359.81;;;5.83;58.87
77867;BME280;67271;59.120;37.970;2023-04-21T00:57:35;100361.75;;;5.73;59.49
77867;BME280;67271;59.120;37.970;2023-04-21T01:00:04;100355.41;;;5.74;58.83
77867;BME280;67271;59.120;37.970;2023-04-21T01:02:31;100349.38;;;5.80;58.83
77867;BME280;67271;59.120;37.970;2023-04-21T01:04:59;100347.53;;;5.81;58.55
77867;BME280;67271;59.120;37.970;2023-04-21T01:07:25;100341.00;;;5.83;58.97
77867;BME280;67271;59.120;37.970;2023-04-21T01:09:51;100342.00;;;5.82;58.91
77867;BME280;67271;59.120;37.970;2023-04-21T01:12:17;100343.97;;;5.72;59.33
77867;BME280;67271;59.120;37.970;2023-04-21T01:14:43;100341.44;;;5.63;59.65
77867;BME280;67271;59.120;37.970;2023-04-21T01:17:09;100333.03;;;5.66;59.68
77867;BME280;67271;59.120;37.970;2023-04-21T01:19:41;100342.66;;;5.76;59.16
77867;BME280;67271;59.120;37.970;2023-04-21T01:22:08;100334.13;;;5.81;59.28
77867;BME280;67271;59.120;37.970;2023-04-21T01:24:46;100331.41;;;6.07;58.46
77867;BME280;67271;59.120;37.970;2023-04-21T01:27:14;100333.78;;;6.18;58.45
77867;BME280;67271;59.120;37.970;2023-04-21T01:29:42;100340.75;;;5.95;58.60
77867;BME280;67271;59.120;37.970;2023-04-21T01:32:12;100339.31;;;5.82;59.58
77867;BME280;67271;59.120;37.970;2023-04-21T01:34:39;100333.06;;;6.00;59.06
77867;BME280;67271;59.120;37.970;2023-04-21T01:37:14;100337.78;;;6.06;58.29
77867;BME280;67271;59.120;37.970;2023-04-21T01:39:43;100333.72;;;6.02;58.90
77867;BME280;67271;59.120;37.970;2023-04-21T01:42:09;100326.41;;;6.20;58.42
77867;BME280;67271;59.120;37.970;2023-04-21T01:44:36;100322.75;;;6.45;58.17
77867;BME280;67271;59.120;37.970;2023-04-21T01:47:02;100324.44;;;6.63;57.67
77867;BME280;67271;59.120;37.970;2023-04-21T01:49:28;100313.69;;;6.46;58.18
77867;BME280;67271;59.120;37.970;2023-04-21T01:51:55;100313.28;;;6.25;58.93
77867;BME280;67271;59.120;37.970;2023-04-21T01:54:21;100316.81;;;6.17;59.22
77867;BME280;67271;59.120;37.970;2023-04-21T01:56:47;100317.13;;;6.06;59.65
77867;BME280;67271;59.120;37.970;2023-04-21T01:59:14;100302.63;;;5.91;59.99
77867;BME280;67271;59.120;37.970;2023-04-21T02:01:40;100302.13;;;5.88;60.45
77867;BME280;67271;59.120;37.970;2023-04-21T02:04:05;100308.19;;;5.98;59.76
77867;BME280;67271;59.120;37.970;2023-04-21T02:06:31;100302.53;;;6.09;59.45
77867;BME280;67271;59.120;37.970;2023-04-21T02:08:58;100299.19;;;6.15;59.42
77867;BME280;67271;59.120;37.970;2023-04-21T02:11:26;100300.28;;;5.96;59.87
77867;BME280;67271;59.120;37.970;2023-04-21T02:13:54;100293.44;;;5.94;59.87
77867;BME280;67271;59.120;37.970;2023-04-21T02:16:21;100301.03;;;6.14;59.18
77867;BME280;67271;59.120;37.970;2023-04-21T02:18:55;100298.72;;;6.36;58.54
77867;BME280;67271;59.120;37.970;2023-04-21T02:21:31;100294.53;;;6.49;58.45
77867;BME280;67271;59.120;37.970;2023-04-21T02:23:57;100297.06;;;6.51;58.57
77867;BME280;67271;59.120;37.970;2023-04-21T02:26:25;100301.59;;;6.50;58.63
77867;BME280;67271;59.120;37.970;2023-04-21T02:28:51;100301.94;;;6.64;58.39
77867;BME280;67271;59.120;37.970;2023-04-21T02:31:17;100303.28;;;6.51;58.70
77867;BME280;67271;59.120;37.970;2023-04-21T02:33:43;100296.53;;;6.39;58.87
77867;BME280;67271;59.120;37.970;2023-04-21T02:36:10;100299.41;;;6.38;59.36
77867;BME280;67271;59.120;37.970;2023-04-21T02:38:36;100294.19;;;6.36;59.36
77867;BME280;67271;59.120;37.970;2023-04-21T02:41:02;100299.22;;;6.47;58.99
77867;BME280;67271;59.120;37.970;2023-04-21T02:43:28;100300.06;;;6.56;58.89
77867;BME280;67271;59.120;37.970;2023-04-21T02:45:54;100300.22;;;6.54;58.87
77867;BME280;67271;59.120;37.970;2023-04-21T02:48:20;100294.88;;;6.38;59.30
77867;BME280;67271;59.120;37.970;2023-04-21T02:50:51;100291.81;;;6.33;59.47
77867;BME280;67271;59.120;37.970;2023-04-21T02:53:19;100287.13;;;6.43;59.14
77867;BME280;67271;59.120;37.970;2023-04-21T02:55:45;100289.84;;;6.51;58.78
77867;BME280;67271;59.120;37.970;2023-04-21T02:58:11;100299.91;;;6.49;59.02
77867;BME280;67271;59.120;37.970;2023-04-21T03:00:36;100293.53;;;6.50;59.09
77867;BME280;67271;59.120;37.970;2023-04-21T03:03:02;100290.34;;;6.87;57.80
77867;BME280;67271;59.120;37.970;2023-04-21T03:05:28;100303.59;;;7.13;57.23
77867;BME280;67271;59.120;37.970;2023-04-21T03:07:54;100293.47;;;7.23;57.39
77867;BME280;67271;59.120;37.970;2023-04-21T03:10:20;100298.00;;;7.31;57.08
77867;BME280;67271;59.120;37.970;2023-04-21T03:12:46;100309.63;;;7.15;57.75
77867;BME280;67271;59.120;37.970;2023-04-21T03:15:12;100304.59;;;7.12;58.01
77867;BME280;67271;59.120;37.970;2023-04-21T03:17:39;100309.63;;;7.15;57.72
77867;BME280;67271;59.120;37.970;2023-04-21T03:20:06;100296.53;;;6.96;58.26
77867;BME280;67271;59.120;37.970;2023-04-21T03:22:37;100300.59;;;6.84;58.68
77867;BME280;67271;59.120;37.970;2023-04-21T03:25:03;100299.91;;;6.98;58.22
77867;BME280;67271;59.120;37.970;2023-04-21T03:27:30;100301.94;;;6.96;58.19
77867;BME280;67271;59.120;37.970;2023-04-21T03:29:56;100309.69;;;6.83;58.18
77867;BME280;67271;59.120;37.970;2023-04-21T03:32:22;100303.94;;;6.86;58.56
77867;BME280;67271;59.120;37.970;2023-04-21T03:34:49;100306.31;;;6.97;58.13
77867;BME280;67271;59.120;37.970;2023-04-21T03:37:16;100306.63;;;6.94;58.34
77867;BME280;67271;59.120;37.970;2023-04-21T03:39:42;100309.78;;;7.22;57.72
77867;BME280;67271;59.120;37.970;2023-04-21T03:42:08;100306.09;;;7.23;57.67
77867;BME280;67271;59.120;37.970;2023-04-21T03:44:34;100299.56;;;7.09;58.05
77867;BME280;67271;59.120;37.970;2023-04-21T03:47:00;100296.88;;;7.01;58.20
77867;BME280;67271;59.120;37.970;2023-04-21T03:49:29;100293.34;;;7.00;58.26
77867;BME280;67271;59.120;37.970;2023-04-21T03:51:55;100297.16;;;7.22;57.77
77867;BME280;67271;59.120;37.970;2023-04-21T03:54:20;100304.59;;;7.28;57.55
77867;BME280;67271;59.120;37.970;2023-04-21T03:56:46;100309.44;;;7.33;57.47
77867;BME280;67271;59.120;37.970;2023-04-21T03:59:12;100298.38;;;7.20;58.54
77867;BME280;67271;59.120;37.970;2023-04-21T04:01:38;100297.84;;;7.24;58.34
77867;BME280;67271;59.120;37.970;2023-04-21T04:04:04;100299.31;;;7.43;57.75
77867;BME280;67271;59.120;37.970;2023-04-21T04:06:30;100288.53;;;7.51;57.53
77867;BME280;67271;59.120;37.970;2023-04-21T04:08:57;100287.28;;;7.70;57.40
77867;BME280;67271;59.120;37.970;2023-04-21T04:11:23;100295.75;;;7.90;56.94
77867;BME280;67271;59.120;37.970;2023-04-21T04:13:49;100287.59;;;8.06;56.71
77867;BME280;67271;59.120;37.970;2023-04-21T04:16:15;100287.72;;;8.12;56.49
77867;BME280;67271;59.120;37.970;2023-04-21T04:18:41;100285.88;;;8.13;56.71
77867;BME280;67271;59.120;37.970;2023-04-21T04:21:07;100278.22;;;8.33;56.68
77867;BME280;67271;59.120;37.970;2023-04-21T04:23:35;100283.63;;;8.56;56.16
77867;BME280;67271;59.120;37.970;2023-04-21T04:26:01;100282.16;;;8.68;55.81
77867;BME280;67271;59.120;37.970;2023-04-21T04:28:30;100275.06;;;8.89;55.35
77867;BME280;67271;59.120;37.970;2023-04-21T04:30:56;100267.66;;;9.21;54.81
77867;BME280;67271;59.120;37.970;2023-04-21T04:33:22;100268.50;;;9.51;54.02
77867;BME280;67271;59.120;37.970;2023-04-21T04:35:48;100266.81;;;9.79;53.90
77867;BME280;67271;59.120;37.970;2023-04-21T04:38:13;100270.56;;;10.14;53.15
77867;BME280;67271;59.120;37.970;2023-04-21T04:40:40;100262.38;;;10.65;52.09
77867;BME280;67271;59.120;37.970;2023-04-21T04:43:07;100266.50;;;11.10;51.19
77867;BME280;67271;59.120;37.970;2023-04-21T04:45:35;100263.44;;;11.47;50.76
77867;BME280;67271;59.120;37.970;2023-04-21T04:48:02;100261.34;;;11.84;49.75
77867;BME280;67271;59.120;37.970;2023-04-21T04:50:28;100259.97;;;12.01;49.64
77867;BME280;67271;59.120;37.970;2023-04-21T04:52:54;100261.97;;;11.79;50.29
77867;BME280;67271;59.120;37.970;2023-04-21T04:55:22;100260.78;;;11.60;51.08
77867;BME280;67271;59.120;37.970;2023-04-21T04:57:48;100263.22;;;11.49;51.13
77867;BME280;67271;59.120;37.970;2023-04-21T05:00:14;100258.59;;;11.43;50.90
77867;BME280;67271;59.120;37.970;2023-04-21T05:02:40;100263.19;;;11.14;51.59
77867;BME280;67271;59.120;37.970;2023-04-21T05:05:06;100253.72;;;10.76;51.81
77867;BME280;67271;59.120;37.970;2023-04-21T05:07:33;100255.06;;;10.37;52.69
77867;BME280;67271;59.120;37.970;2023-04-21T05:09:59;100256.97;;;10.43;52.94
77867;BME280;67271;59.120;37.970;2023-04-21T05:12:25;100255.66;;;10.39;52.93
77867;BME280;67271;59.120;37.970;2023-04-21T05:14:51;100252.47;;;10.51;52.05
77867;BME280;67271;59.120;37.970;2023-04-21T05:17:17;100259.53;;;10.73;51.56
77867;BME280;67271;59.120;37.970;2023-04-21T05:19:43;100259.47;;;11.84;49.62
77867;BME280;67271;59.120;37.970;2023-04-21T05:22:09;100263.50;;;12.01;48.73
77867;BME280;67271;59.120;37.970;2023-04-21T05:24:34;100261.22;;;12.12;49.24
77867;BME280;67271;59.120;37.970;2023-04-21T05:27:01;100254.59;;;12.21;48.96
77867;BME280;67271;59.120;37.970;2023-04-21T05:29:29;100249.97;;;12.08;49.07
77867;BME280;67271;59.120;37.970;2023-04-21T05:31:55;100249.50;;;11.91;49.20
77867;BME280;67271;59.120;37.970;2023-04-21T05:34:21;100241.31;;;11.78;49.56
77867;BME280;67271;59.120;37.970;2023-04-21T05:36:47;100244.03;;;11.50;49.77
77867;BME280;67271;59.120;37.970;2023-04-21T05:39:13;100250.00;;;11.33;50.40
77867;BME280;67271;59.120;37.970;2023-04-21T05:41:40;100254.06;;;11.22;50.64
77867;BME280;67271;59.120;37.970;2023-04-21T05:44:06;100256.50;;;11.10;50.52
77867;BME280;67271;59.120;37.970;2023-04-21T05:46:32;100244.53;;;10.98;50.55
77867;BME280;67271;59.120;37.970;2023-04-21T05:48:59;100250.09;;;10.90;51.03
77867;BME280;67271;59.120;37.970;2023-04-21T05:51:26;100246.91;;;10.80;50.87
77867;BME280;67271;59.120;37.970;2023-04-21T05:53:52;100245.75;;;10.68;51.18
77867;BME280;67271;59.120;37.970;2023-04-21T05:56:18;100244.13;;;10.73;50.64
77867;BME280;67271;59.120;37.970;2023-04-21T05:58:44;100255.72;;;10.89;50.10
77867;BME280;67271;59.120;37.970;2023-04-21T06:01:11;100253.75;;;11.32;49.60
77867;BME280;67271;59.120;37.970;2023-04-21T06:03:37;100252.63;;;11.54;48.82
77867;BME280;67271;59.120;37.970;2023-04-21T06:06:04;100250.88;;;11.40;48.97
77867;BME280;67271;59.120;37.970;2023-04-21T06:08:31;100253.75;;;11.32;49.16
77867;BME280;67271;59.120;37.970;2023-04-21T06:10:57;100248.53;;;11.37;48.63
77867;BME280;67271;59.120;37.970;2023-04-21T06:13:23;100254.22;;;11.76;48.42
77867;BME280;67271;59.120;37.970;2023-04-21T06:15:49;100237.06;;;12.17;47.46
77867;BME280;67271;59.120;37.970;2023-04-21T06:18:15;100241.94;;;12.48;46.79
77867;BME280;67271;59.120;37.970;2023-04-21T06:20:41;100238.81;;;12.90;45.77
77867;BME280;67271;59.120;37.970;2023-04-21T06:23:07;100233.78;;;12.61;46.67
77867;BME280;67271;59.120;37.970;2023-04-21T06:25:34;100229.16;;;12.35;46.77
77867;BME280;67271;59.120;37.970;2023-04-21T06:28:00;100238.78;;;12.64;46.08
77867;BME280;67271;59.120;37.970;2023-04-21T06:30:28;100233.38;;;12.97;45.68
77867;BME280;67271;59.120;37.970;2023-04-21T06:32:54;100226.28;;;13.22;44.78
77867;BME280;67271;59.120;37.970;2023-04-21T06:35:20;100223.72;;;13.40;44.87
77867;BME280;67271;59.120;37.970;2023-04-21T06:37:46;100222.44;;;13.49;44.87
77867;BME280;67271;59.120;37.970;2023-04-21T06:40:12;100222.72;;;13.86;44.11
77867;BME280;67271;59.120;37.970;2023-04-21T06:42:41;100219.94;;;14.37;43.37
77867;BME280;67271;59.120;37.970;2023-04-21T06:45:07;100220.16;;;14.42;43.38
77867;BME280;67271;59.120;37.970;2023-04-21T06:47:33;100219.97;;;14.30;43.92
77867;BME280;67271;59.120;37.970;2023-04-21T06:49:59;100224.16;;;13.95;44.41
77867;BME280;67271;59.120;37.970;2023-04-21T06:52:25;100225.91;;;13.83;44.27
77867;BME280;67271;59.120;37.970;2023-04-21T06:54:51;100228.22;;;13.73;44.43
77867;BME280;67271;59.120;37.970;2023-04-21T06:57:17;100213.88;;;13.52;44.35
77867;BME280;67271;59.120;37.970;2023-04-21T06:59:43;100214.94;;;13.38;43.84
77867;BME280;67271;59.120;37.970;2023-04-21T07:02:09;100216.41;;;13.34;44.11
77867;BME280;67271;59.120;37.970;2023-04-21T07:04:35;100212.63;;;13.48;43.24
77867;BME280;67271;59.120;37.970;2023-04-21T07:07:01;100211.16;;;13.46;43.39
77867;BME280;67271;59.120;37.970;2023-04-21T07:09:27;100211.41;;;13.89;42.44
77867;BME280;67271;59.120;37.970;2023-04-21T07:11:58;100202.38;;;14.64;41.63
77867;BME280;67271;59.120;37.970;2023-04-21T07:14:25;100213.94;;;14.60;41.50
77867;BME280;67271;59.120;37.970;2023-04-21T07:16:51;100213.06;;;14.34;41.72
77867;BME280;67271;59.120;37.970;2023-04-21T07:19:17;100211.63;;;14.25;41.51
77867;BME280;67271;59.120;37.970;2023-04-21T07:21:43;100201.47;;;14.46;41.51
77867;BME280;67271;59.120;37.970;2023-04-21T07:24:09;100211.00;;;14.61;41.06
77867;BME280;67271;59.120;37.970;2023-04-21T07:26:35;100200.75;;;14.82;40.23
77867;BME280;67271;59.120;37.970;2023-04-21T07:29:00;100208.09;;;15.06;40.13
77867;BME280;67271;59.120;37.970;2023-04-21T07:31:26;100207.28;;;15.24;39.95
77867;BME280;67271;59.120;37.970;2023-04-21T07:33:52;100200.41;;;14.96;40.00
77867;BME280;67271;59.120;37.970;2023-04-21T07:36:18;100197.44;;;14.55;40.70
77867;BME280;67271;59.120;37.970;2023-04-21T07:38:44;100201.09;;;14.36;41.23
77867;BME280;67271;59.120;37.970;2023-04-21T07:41:10;100191.66;;;14.69;40.58
77867;BME280;67271;59.120;37.970;2023-04-21T07:43:37;100193.63;;;15.05;40.02
77867;BME280;67271;59.120;37.970;2023-04-21T07:46:03;100191.19;;;15.40;39.50
77867;BME280;67271;59.120;37.970;2023-04-21T07:48:29;100193.25;;;15.63;39.60
77867;BME280;67271;59.120;37.970;2023-04-21T07:50:55;100187.44;;;15.90;39.08
77867;BME280;67271;59.120;37.970;2023-04-21T07:53:23;100190.63;;;15.50;39.46
77867;BME280;67271;59.120;37.970;2023-04-21T07:55:49;100193.97;;;14.91;40.15
77867;BME280;67271;59.120;37.970;2023-04-21T07:58:15;100182.56;;;15.00;39.89
77867;BME280;67271;59.120;37.970;2023-04-21T08:00:41;100179.97;;;15.30;39.11
77867;BME280;67271;59.120;37.970;2023-04-21T08:03:07;100183.75;;;15.66;38.32
77867;BME280;67271;59.120;37.970;2023-04-21T08:05:36;100169.09;;;15.97;37.92
77867;BME280;67271;59.120;37.970;2023-04-21T08:08:03;100161.91;;;16.14;37.40
77867;BME280;67271;59.120;37.970;2023-04-21T08:10:29;100153.22;;;16.05;37.26
77867;BME280;67271;59.120;37.970;2023-04-21T08:12:56;100169.28;;;15.65;37.71
77867;BME280;67271;59.120;37.970;2023-04-21T08:15:22;100167.47;;;15.77;37.88
77867;BME280;67271;59.120;37.970;2023-04-21T08:17:48;100154.66;;;16.08;37.31
77867;BME280;67271;59.120;37.970;2023-04-21T08:20:14;100164.78;;;16.19;37.22
77867;BME280;67271;59.120;37.970;2023-04-21T08:22:40;100155.69;;;16.48;36.88
77867;BME280;67271;59.120;37.970;2023-04-21T08:25:06;100157.88;;;16.70;36.60
77867;BME280;67271;59.120;37.970;2023-04-21T08:27:32;100164.56;;;17.09;35.66
77867;BME280;67271;59.120;37.970;2023-04-21T08:29:58;100143.41;;;17.27;35.58
77867;BME280;67271;59.120;37.970;2023-04-21T08:32:25;100154.81;;;17.13;35.65
77867;BME280;67271;59.120;37.970;2023-04-21T08:34:52;100148.63;;;17.29;35.90
77867;BME280;67271;59.120;37.970;2023-04-21T08:37:19;100145.84;;;17.40;35.29
77867;BME280;67271;59.120;37.970;2023-04-21T08:39:46;100142.13;;;17.58;35.20
77867;BME280;67271;59.120;37.970;2023-04-21T08:42:13;100137.75;;;17.46;35.45
77867;BME280;67271;59.120;37.970;2023-04-21T08:44:42;100138.19;;;17.54;35.14
77867;BME280;67271;59.120;37.970;2023-04-21T08:47:09;100140.44;;;17.69;35.12
77867;BME280;67271;59.120;37.970;2023-04-21T08:49:40;100139.88;;;17.95;34.61
77867;BME280;67271;59.120;37.970;2023-04-21T08:52:07;100142.84;;;18.22;34.29
77867;BME280;67271;59.120;37.970;2023-04-21T08:54:33;100139.19;;;18.16;34.09
77867;BME280;67271;59.120;37.970;2023-04-21T08:57:03;100132.81;;;17.99;34.46
77867;BME280;67271;59.120;37.970;2023-04-21T08:59:29;100134.28;;;17.62;34.88
77867;BME280;67271;59.120;37.970;2023-04-21T09:04:38;100144.72;;;16.67;36.30
77867;BME280;67271;59.120;37.970;2023-04-21T09:07:04;100134.84;;;16.66;36.46
77867;BME280;67271;59.120;37.970;2023-04-21T09:09:30;100134.56;;;16.44;36.59
77867;BME280;67271;59.120;37.970;2023-04-21T09:11:57;100130.44;;;16.11;36.65
77867;BME280;67271;59.120;37.970;2023-04-21T09:14:35;100133.63;;;16.50;36.11
77867;BME280;67271;59.120;37.970;2023-04-21T09:17:02;100134.75;;;16.84;35.61
77867;BME280;67271;59.120;37.970;2023-04-21T09:19:32;100127.00;;;17.04;35.39
77867;BME280;67271;59.120;37.970;2023-04-21T09:22:02;100129.88;;;16.97;35.22
77867;BME280;67271;59.120;37.970;2023-04-21T09:24:29;100121.78;;;17.02;35.64
77867;BME280;67271;59.120;37.970;2023-04-21T09:26:55;100125.69;;;16.95;35.55
77867;BME280;67271;59.120;37.970;2023-04-21T09:29:22;100121.91;;;16.73;35.96
77867;BME280;67271;59.120;37.970;2023-04-21T09:31:49;100121.09;;;16.60;35.80
77867;BME280;67271;59.120;37.970;2023-04-21T09:34:20;100131.28;;;17.00;35.32
77867;BME280;67271;59.120;37.970;2023-04-21T09:36:58;100115.00;;;17.57;34.51
77867;BME280;67271;59.120;37.970;2023-04-21T09:39:27;100116.22;;;17.49;34.76
77867;BME280;67271;59.120;37.970;2023-04-21T09:41:53;100115.56;;;17.19;35.09
77867;BME280;67271;59.120;37.970;2023-04-21T09:44:19;100112.13;;;17.00;35.41
77867;BME280;67271;59.120;37.970;2023-04-21T09:46:49;100105.63;;;16.89;35.58
77867;BME280;67271;59.120;37.970;2023-04-21T09:49:16;100108.69;;;16.93;35.36
77867;BME280;67271;59.120;37.970;2023-04-21T09:51:43;100097.75;;;17.16;35.21
77867;BME280;67271;59.120;37.970;2023-04-21T09:54:17;100094.53;;;17.19;35.04
77867;BME280;67271;59.120;37.970;2023-04-21T09:56:48;100095.28;;;17.03;35.30
77867;BME280;67271;59.120;37.970;2023-04-21T09:59:19;100093.38;;;16.80;35.61
77867;BME280;67271;59.120;37.970;2023-04-21T10:01:47;100089.69;;;16.98;35.06
77867;BME280;67271;59.120;37.970;2023-04-21T10:04:14;100086.59;;;17.06;35.00
77867;BME280;67271;59.120;37.970;2023-04-21T10:06:42;100085.44;;;16.67;35.50
77867;BME280;67271;59.120;37.970;2023-04-21T10:09:09;100082.38;;;16.10;36.53
77867;BME280;67271;59.120;37.970;2023-04-21T10:11:36;100083.75;;;15.60;37.28
77867;BME280;67271;59.120;37.970;2023-04-21T10:14:03;100086.66;;;15.28;37.82
77867;BME280;67271;59.120;37.970;2023-04-21T10:16:29;100092.13;;;15.10;37.48
77867;BME280;67271;59.120;37.970;2023-04-21T10:18:55;100097.94;;;14.95;37.67
77867;BME280;67271;59.120;37.970;2023-04-21T10:21:21;100103.97;;;14.79;38.29
77867;BME280;67271;59.120;37.970;2023-04-21T10:23:49;100097.16;;;14.70;37.81
77867;BME280;67271;59.120;37.970;2023-04-21T10:26:26;100104.09;;;14.66;37.84
77867;BME280;67271;59.120;37.970;2023-04-21T10:28:58;100094.88;;;14.67;37.81
77867;BME280;67271;59.120;37.970;2023-04-21T10:31:51;100101.25;;;14.79;37.57
77867;BME280;67271;59.120;37.970;2023-04-21T10:34:28;100094.44;;;15.06;36.97
77867;BME280;67271;59.120;37.970;2023-04-21T10:39:44;100097.31;;;15.30;37.10
77867;BME280;67271;59.120;37.970;2023-04-21T10:47:34;100095.69;;;15.10;37.29
77867;BME280;67271;59.120;37.970;2023-04-21T10:50:14;100087.56;;;15.04;36.80
77867;BME280;67271;59.120;37.970;2023-04-21T10:52:54;100080.91;;;15.18;36.66
77867;BME280;67271;59.120;37.970;2023-04-21T10:55:21;100087.78;;;15.39;36.42
77867;BME280;67271;59.120;37.970;2023-04-21T10:57:47;100078.44;;;15.46;36.56
77867;BME280;67271;59.120;37.970;2023-04-21T11:00:16;100079.78;;;15.74;36.26
77867;BME280;67271;59.120;37.970;2023-04-21T11:02:42;100072.19;;;15.76;36.17
77867;BME280;67271;59.120;37.970;2023-04-21T11:05:08;100073.53;;;15.85;36.23
77867;BME280;67271;59.120;37.970;2023-04-21T11:07:34;100073.63;;;15.78;36.35
77867;BME280;67271;59.120;37.970;2023-04-21T11:10:03;100072.59;;;15.91;35.97
77867;BME280;67271;59.120;37.970;2023-04-21T11:12:31;100067.38;;;15.90;36.06
77867;BME280;67271;59.120;37.970;2023-04-21T11:14:57;100066.75;;;15.87;36.37
77867;BME280;67271;59.120;37.970;2023-04-21T11:17:24;100068.34;;;15.65;36.76
77867;BME280;67271;59.120;37.970;2023-04-21T11:19:53;100070.81;;;15.37;37.13
77867;BME280;67271;59.120;37.970;2023-04-21T11:22:23;100069.03;;;15.42;37.29
77867;BME280;67271;59.120;37.970;2023-04-21T11:24:53;100058.97;;;15.43;37.38
77867;BME280;67271;59.120;37.970;2023-04-21T11:27:19;100063.97;;;15.46;37.57
77867;BME280;67271;59.120;37.970;2023-04-21T11:29:48;100052.56;;;15.37;37.25
77867;BME280;67271;59.120;37.970;2023-04-21T11:32:15;100055.41;;;15.42;37.00
77867;BME280;67271;59.120;37.970;2023-04-21T11:34:41;100050.41;;;15.58;37.21
77867;BME280;67271;59.120;37.970;2023-04-21T11:37:08;100051.94;;;15.83;36.35
77867;BME280;67271;59.120;37.970;2023-04-21T11:39:34;100040.19;;;15.95;36.31
77867;BME280;67271;59.120;37.970;2023-04-21T11:42:00;100052.00;;;16.07;35.87
77867;BME280;67271;59.120;37.970;2023-04-21T11:44:41;100045.91;;;16.05;36.00
77867;BME280;67271;59.120;37.970;2023-04-21T11:47:17;100040.47;;;16.05;36.34
77867;BME280;67271;59.120;37.970;2023-04-21T11:49:46;100040.25;;;16.06;36.14
77867;BME280;67271;59.120;37.970;2023-04-21T11:52:33;100037.28;;;16.08;36.03
77867;BME280;67271;59.120;37.970;2023-04-21T11:55:05;100037.00;;;15.98;36.20
77867;BME280;67271;59.120;37.970;2023-04-21T11:57:32;100029.09;;;16.08;35.85
77867;BME280;67271;59.120;37.970;2023-04-21T11:59:59;100026.47;;;16.13;35.75
77867;BME280;67271;59.120;37.970;2023-04-21T12:02:31;100030.72;;;16.09;35.99
77867;BME280;67271;59.120;37.970;2023-04-21T12:04:59;100020.41;;;16.11;35.80
77867;BME280;67271;59.120;37.970;2023-04-21T12:07:25;100026.69;;;16.00;35.83
77867;BME280;67271;59.120;37.970;2023-04-21T12:09:52;100025.09;;;15.80;35.98
77867;BME280;67271;59.120;37.970;2023-04-21T12:12:18;100028.38;;;15.59;36.03
77867;BME280;67271;59.120;37.970;2023-04-21T12:14:44;100021.25;;;15.58;36.11
77867;BME280;67271;59.120;37.970;2023-04-21T12:17:10;100022.91;;;15.59;36.32
77867;BME280;67271;59.120;37.970;2023-04-21T12:19:38;100018.75;;;15.57;36.56
77867;BME280;67271;59.120;37.970;2023-04-21T12:22:14;100017.13;;;15.67;36.58
77867;BME280;67271;59.120;37.970;2023-04-21T12:24:40;100019.53;;;15.75;36.69
77867;BME280;67271;59.120;37.970;2023-04-21T12:27:07;100007.31;;;15.90;36.59
77867;BME280;67271;59.120;37.970;2023-04-21T12:29:33;100011.38;;;15.99;36.07
77867;BME280;67271;59.120;37.970;2023-04-21T12:32:00;100005.81;;;15.94;36.43
77867;BME280;67271;59.120;37.970;2023-04-21T12:34:26;99998.69;;;16.04;36.10
77867;BME280;67271;59.120;37.970;2023-04-21T12:36:52;100004.53;;;16.31;35.84
77867;BME280;67271;59.120;37.970;2023-04-21T12:39:18;100005.22;;;16.61;35.62
77867;BME280;67271;59.120;37.970;2023-04-21T12:41:45;99985.50;;;16.59;35.50
77867;BME280;67271;59.120;37.970;2023-04-21T12:44:12;99990.75;;;16.38;35.68
77867;BME280;67271;59.120;37.970;2023-04-21T12:46:39;99996.56;;;16.18;36.18
77867;BME280;67271;59.120;37.970;2023-04-21T12:49:05;99993.25;;;16.16;35.92
77867;BME280;67271;59.120;37.970;2023-04-21T12:51:32;99985.97;;;16.10;36.20
77867;BME280;67271;59.120;37.970;2023-04-21T12:53:58;99991.56;;;16.26;35.68
77867;BME280;67271;59.120;37.970;2023-04-21T12:56:25;99985.63;;;16.18;35.90